KSTK/STK METAR and TAF weather

Enter ICAO airport designator
Station Type Date Time Source
KSTK METAR 2019/10/22 16:10 UTC NOAA

KSTK 221610Z AUTO 00000KT 10SM CLR 07/M02 A3013 RMK AO2


Station Type Date Time Source
KSTK Decoded METAR 2019/10/22 16:10 UTC NOAA

Station name not available
Oct 22, 2019 - 12:10 PM EDT / 2019.10.22 1610 UTC
Wind: Calm:0
Visibility: 10 mile(s):0
Sky conditions: clear
Temperature: 44 F (7 C)
Dew Point: 28 F (-2 C)
Relative Humidity: 52%
Pressure (altimeter): 30.13 in. Hg (1020 hPa)
ob: KSTK 221610Z AUTO 00000KT 10SM CLR 07/M02 A3013 RMK AO2
cycle: 16

Station Type Date Time Source
KSTK TAF UTC NOAA

Error!

Example: see airport list